createdAt,value
2018-02-18T09:46:49.088Z,2.46
2018-02-18T09:47:50.931Z,2.48
2018-02-18T09:48:52.794Z,2.52
2018-02-18T09:49:54.645Z,2.46
2018-02-18T09:50:56.664Z,2.49
2018-02-18T09:51:58.495Z,2.53
2018-02-18T09:53:00.361Z,2.57
2018-02-18T09:54:02.238Z,2.67
2018-02-18T09:55:04.221Z,2.85
2018-02-18T09:56:18.531Z,3.00
2018-02-18T09:57:20.405Z,3.11
2018-02-18T09:58:22.258Z,3.20
2018-02-18T09:59:24.122Z,3.23
2018-02-18T10:00:25.939Z,3.24
2018-02-18T10:01:27.751Z,3.31
2018-02-18T10:02:29.631Z,3.35
2018-02-18T10:03:31.504Z,3.35
2018-02-18T10:04:33.359Z,3.50
2018-02-18T10:05:47.489Z,3.60
2018-02-18T10:06:49.361Z,3.79
2018-02-18T10:07:51.212Z,3.83
2018-02-18T10:08:53.078Z,4.04
2018-02-18T10:09:54.890Z,4.05
2018-02-18T10:10:56.683Z,4.23
2018-02-18T10:11:58.549Z,4.40
2018-02-18T10:13:00.440Z,4.55
2018-02-18T10:14:02.310Z,4.55
2018-02-18T10:15:16.459Z,4.75
2018-02-18T10:16:18.318Z,4.85
2018-02-18T10:17:20.200Z,5.02
2018-02-18T10:18:22.084Z,5.07
2018-02-18T10:19:23.896Z,5.02
2018-02-18T10:20:25.713Z,4.82
2018-02-18T10:21:27.595Z,4.80
2018-02-18T10:22:29.460Z,4.70
2018-02-18T10:23:31.318Z,4.69
2018-02-18T10:24:45.441Z,4.75
2018-02-18T10:25:47.304Z,4.69
2018-02-18T10:26:49.182Z,4.72
2018-02-18T10:27:51.043Z,4.66
2018-02-18T10:28:52.838Z,4.62
2018-02-18T10:29:54.636Z,4.52
2018-02-18T10:30:56.498Z,4.44
2018-02-18T10:31:58.359Z,4.47
2018-02-18T10:33:00.218Z,4.41
2018-02-18T10:34:14.412Z,4.41
2018-02-18T10:35:16.293Z,4.51
2018-02-18T10:36:18.175Z,4.59
2018-02-18T10:37:20.072Z,4.65
2018-02-18T10:38:21.865Z,4.52
2018-02-18T10:39:23.681Z,4.55
2018-02-18T10:40:25.561Z,4.65
2018-02-18T10:41:27.436Z,4.52
2018-02-18T10:42:29.298Z,4.58
2018-02-18T10:43:43.422Z,4.45
2018-02-18T10:44:45.278Z,4.42
2018-02-18T10:45:47.141Z,4.40
2018-02-18T10:46:49.022Z,4.58
2018-02-18T10:47:50.814Z,4.65
2018-02-18T10:48:52.648Z,4.66
2018-02-18T10:49:54.504Z,4.70
2018-02-18T10:50:56.366Z,4.63
2018-02-18T10:51:58.227Z,4.65
2018-02-18T10:53:12.373Z,4.58
2018-02-18T10:54:14.263Z,4.54
2018-02-18T10:55:16.102Z,4.54
2018-02-18T10:56:17.960Z,4.55
2018-02-18T10:57:19.760Z,4.60
2018-02-18T10:58:21.560Z,4.70
2018-02-18T10:59:23.438Z,4.69
2018-02-18T11:00:25.302Z,4.65
2018-02-18T11:01:27.184Z,4.63
2018-02-18T11:02:41.326Z,4.51
2018-02-18T11:03:43.207Z,4.63
2018-02-18T11:04:45.088Z,4.54
2018-02-18T11:05:46.944Z,4.59
2018-02-18T11:06:48.744Z,4.58
2018-02-18T11:07:50.559Z,4.55
2018-02-18T11:08:52.441Z,4.63
2018-02-18T11:09:54.312Z,4.63
2018-02-18T11:10:56.174Z,4.66
2018-02-18T11:12:10.302Z,4.77
2018-02-18T11:13:12.178Z,4.73
2018-02-18T11:14:14.038Z,4.85
2018-02-18T11:15:15.919Z,4.92
2018-02-18T11:16:17.735Z,4.92
2018-02-18T11:17:19.550Z,4.97
2018-02-18T11:18:21.409Z,5.18
2018-02-18T11:19:23.284Z,5.03
2018-02-18T11:20:25.144Z,5.03
2018-02-18T11:21:39.300Z,4.89
2018-02-18T11:22:41.164Z,4.80
2018-02-18T11:23:43.037Z,4.91
2018-02-18T11:24:44.896Z,5.02
2018-02-18T11:25:46.695Z,5.13
2018-02-18T11:26:48.515Z,5.24
2018-02-18T11:27:50.388Z,5.24
2018-02-18T11:28:52.210Z,5.18
2018-02-18T11:29:54.009Z,5.30
2018-02-18T11:31:08.135Z,5.27
2018-02-18T11:32:10.013Z,5.43
2018-02-18T11:33:11.878Z,5.38
2018-02-18T11:34:13.736Z,5.45
2018-02-18T11:35:15.551Z,5.54
2018-02-18T11:36:17.389Z,5.64
2018-02-18T11:37:19.277Z,5.81
2018-02-18T11:38:21.157Z,5.96
2018-02-18T11:39:23.041Z,5.99
2018-02-18T11:40:37.171Z,5.79
2018-02-18T11:41:39.049Z,5.83
2018-02-18T11:42:40.909Z,5.86
2018-02-18T11:43:42.793Z,6.00
2018-02-18T11:44:44.605Z,6.03
2018-02-18T11:45:46.403Z,6.22
2018-02-18T11:46:48.277Z,6.33
2018-02-18T11:47:50.144Z,6.44
2018-02-18T11:48:52.023Z,6.52
2018-02-18T11:50:06.217Z,6.67
2018-02-18T11:51:08.099Z,6.71
2018-02-18T11:52:09.963Z,6.71
2018-02-18T11:53:11.842Z,6.79
2018-02-18T11:54:13.647Z,6.73
2018-02-18T11:55:15.462Z,6.62
2018-02-18T11:56:17.337Z,6.67
2018-02-18T11:57:19.265Z,6.59
2018-02-18T11:58:21.133Z,6.70
2018-02-18T11:59:35.258Z,6.67
2018-02-18T12:00:37.117Z,6.66
2018-02-18T12:01:38.982Z,6.56
2018-02-18T12:02:40.860Z,6.51
2018-02-18T12:03:42.655Z,6.48
2018-02-18T12:04:44.448Z,6.34
2018-02-18T12:05:46.312Z,6.19
2018-02-18T12:06:48.194Z,6.18
2018-02-18T12:07:50.076Z,6.11
2018-02-18T12:09:04.270Z,6.06
2018-02-18T12:10:06.132Z,5.76
2018-02-18T12:11:08.005Z,5.61
2018-02-18T12:12:09.873Z,5.48
2018-02-18T12:13:11.669Z,5.33
2018-02-18T12:14:13.487Z,5.35
2018-02-18T12:15:15.371Z,5.31
2018-02-18T12:16:17.242Z,5.38
2018-02-18T12:17:19.111Z,5.36
2018-02-18T12:18:33.305Z,5.43
2018-02-18T12:19:35.188Z,5.58
2018-02-18T12:20:37.062Z,5.82
2018-02-18T12:21:38.943Z,5.83
2018-02-18T12:22:40.751Z,5.94
2018-02-18T12:23:42.550Z,5.81
2018-02-18T12:24:44.458Z,5.75
2018-02-18T12:25:46.351Z,5.74
2018-02-18T12:26:48.230Z,5.64
2018-02-18T12:28:02.436Z,5.63
2018-02-18T12:29:04.366Z,5.61
2018-02-18T12:30:06.222Z,5.67
2018-02-18T12:31:08.104Z,5.81
2018-02-18T12:32:09.921Z,5.81
2018-02-18T12:33:11.764Z,5.90
2018-02-18T12:34:13.625Z,5.96
2018-02-18T12:35:15.491Z,5.90
2018-02-18T12:36:17.399Z,5.99
2018-02-18T12:37:31.564Z,5.99
2018-02-18T12:38:33.423Z,5.99
2018-02-18T12:39:35.341Z,5.99
2018-02-18T12:40:37.228Z,5.91
2018-02-18T12:41:39.018Z,5.91
2018-02-18T12:42:40.815Z,5.99
2018-02-18T12:43:42.684Z,6.01
2018-02-18T12:44:44.557Z,6.06
2018-02-18T12:45:46.485Z,6.17
2018-02-18T12:47:00.631Z,6.30
2018-02-18T12:48:02.492Z,6.31
2018-02-18T12:49:04.376Z,6.14
2018-02-18T12:50:06.241Z,6.17
2018-02-18T12:51:08.033Z,6.06
2018-02-18T12:52:09.845Z,6.08
2018-02-18T12:53:11.725Z,6.06
2018-02-18T12:54:13.609Z,5.94
2018-02-18T12:55:15.487Z,5.94
2018-02-18T12:56:29.623Z,5.83
2018-02-18T12:57:31.495Z,5.82
2018-02-18T12:58:33.423Z,5.71
2018-02-18T12:59:35.313Z,5.79
2018-02-18T13:00:37.111Z,5.81
2018-02-18T13:01:38.908Z,5.74
2018-02-18T13:02:40.783Z,5.83
2018-02-18T13:03:42.636Z,5.81
2018-02-18T13:04:44.499Z,5.75
2018-02-18T13:05:58.653Z,5.53
2018-02-18T13:07:00.516Z,5.46
2018-02-18T13:08:02.523Z,5.54
2018-02-18T13:09:04.343Z,5.58
2018-02-18T13:10:06.135Z,5.63
2018-02-18T13:11:07.937Z,5.63
2018-02-18T13:12:09.822Z,5.51
2018-02-18T13:13:11.698Z,5.36
2018-02-18T13:14:13.554Z,5.40
2018-02-18T13:15:27.706Z,5.38
2018-02-18T13:16:29.581Z,5.51
2018-02-18T13:17:31.463Z,5.54
2018-02-18T13:18:33.346Z,5.54
2018-02-18T13:19:35.160Z,5.54
2018-02-18T13:20:36.974Z,5.43
2018-02-18T13:21:38.836Z,5.36
2018-02-18T13:22:40.718Z,5.33
2018-02-18T13:23:42.596Z,5.33
2018-02-18T13:24:56.725Z,5.60
2018-02-18T13:25:58.585Z,5.71
2018-02-18T13:27:00.440Z,5.82
2018-02-18T13:28:02.306Z,5.81
2018-02-18T13:29:04.117Z,5.93
2018-02-18T13:30:05.916Z,6.06
2018-02-18T13:31:07.792Z,6.09
2018-02-18T13:32:09.649Z,6.33
2018-02-18T13:33:11.510Z,6.49
2018-02-18T13:34:25.633Z,6.52
2018-02-18T13:35:27.494Z,6.52
2018-02-18T13:36:29.355Z,6.33
2018-02-18T13:37:31.233Z,6.28
2018-02-18T13:38:33.053Z,6.25
2018-02-18T13:39:34.851Z,6.19
2018-02-18T13:40:36.724Z,6.18
2018-02-18T13:41:38.584Z,6.17
2018-02-18T13:42:40.446Z,6.19
2018-02-18T13:43:54.646Z,6.25
2018-02-18T13:44:56.497Z,6.31
2018-02-18T13:45:58.373Z,6.41
2018-02-18T13:47:00.234Z,6.37
2018-02-18T13:48:02.032Z,6.41
2018-02-18T13:49:03.876Z,6.52
2018-02-18T13:50:05.742Z,6.70
2018-02-18T13:51:07.603Z,6.66
2018-02-18T13:52:09.493Z,6.76
2018-02-18T13:53:23.642Z,6.85
2018-02-18T13:54:25.508Z,6.84
2018-02-18T13:55:27.369Z,6.87
2018-02-18T13:56:29.243Z,6.91
2018-02-18T13:57:31.038Z,6.94
2018-02-18T13:58:32.843Z,6.95
2018-02-18T13:59:34.725Z,7.05
2018-02-18T14:00:36.599Z,7.06
2018-02-18T14:01:38.462Z,6.99
2018-02-18T14:02:52.623Z,6.98
2018-02-18T14:03:54.481Z,6.94
2018-02-18T14:04:56.348Z,6.88
2018-02-18T14:05:58.222Z,6.67
2018-02-18T14:07:00.019Z,6.62
2018-02-18T14:08:01.840Z,6.43
2018-02-18T14:09:03.708Z,6.41
2018-02-18T14:10:05.585Z,6.25
2018-02-18T14:11:07.455Z,6.14
2018-02-18T14:12:21.599Z,6.08
2018-02-18T14:13:23.468Z,5.94
2018-02-18T14:14:25.349Z,5.79
2018-02-18T14:15:27.225Z,5.72
2018-02-18T14:16:29.024Z,5.72
2018-02-18T14:17:30.896Z,5.72
2018-02-18T14:18:32.709Z,5.54
2018-02-18T14:19:34.574Z,5.40
2018-02-18T14:20:36.433Z,5.46
2018-02-18T14:21:50.576Z,5.48
2018-02-18T14:22:52.442Z,5.56
2018-02-18T14:23:54.320Z,5.68
2018-02-18T14:24:56.198Z,5.76
2018-02-18T14:25:58.049Z,5.79
2018-02-18T14:26:59.801Z,5.89
2018-02-18T14:28:01.665Z,5.97
2018-02-18T14:29:03.517Z,6.01
2018-02-18T14:30:05.381Z,6.06
2018-02-18T14:31:19.510Z,6.15
2018-02-18T14:32:21.362Z,6.14
2018-02-18T14:33:23.223Z,6.09
2018-02-18T14:34:25.083Z,5.94
2018-02-18T14:35:26.900Z,5.85
2018-02-18T14:36:28.690Z,5.72
2018-02-18T14:37:30.550Z,5.78
2018-02-18T14:38:32.406Z,5.71
2018-02-18T14:39:34.267Z,5.57
2018-02-18T14:40:48.394Z,5.49
2018-02-18T14:41:50.268Z,5.38
2018-02-18T14:42:52.128Z,5.22
2018-02-18T14:43:54.014Z,5.22
2018-02-18T14:44:55.800Z,5.24
2018-02-18T14:45:57.600Z,5.31
2018-02-18T14:46:59.477Z,5.27
2018-02-18T14:48:01.352Z,5.31
2018-02-18T14:49:03.218Z,5.48
2018-02-18T14:50:17.393Z,5.58
2018-02-18T14:51:19.272Z,5.61
2018-02-18T14:52:21.147Z,5.68
2018-02-18T14:53:23.025Z,5.64
2018-02-18T14:54:24.822Z,5.75
2018-02-18T14:55:26.614Z,5.79
2018-02-18T14:56:28.469Z,5.75
2018-02-18T14:57:30.334Z,5.76
2018-02-18T14:58:32.210Z,5.78
2018-02-18T14:59:46.384Z,5.76
2018-02-18T15:00:48.242Z,5.81
2018-02-18T15:01:50.115Z,5.72
2018-02-18T15:02:51.979Z,5.79
2018-02-18T15:03:53.795Z,5.79
2018-02-18T15:04:55.607Z,5.94
2018-02-18T15:05:57.468Z,5.91
2018-02-18T15:06:59.349Z,6.04
2018-02-18T15:08:01.227Z,5.99
2018-02-18T15:09:15.347Z,6.04
2018-02-18T15:10:17.209Z,6.06
2018-02-18T15:11:19.073Z,6.03
2018-02-18T15:12:20.952Z,6.14
2018-02-18T15:13:22.762Z,6.14
2018-02-18T15:14:24.560Z,6.17
2018-02-18T15:15:26.435Z,6.11
2018-02-18T15:16:28.313Z,6.15
2018-02-18T15:17:30.173Z,6.15
2018-02-18T15:18:44.302Z,6.14
2018-02-18T15:19:46.163Z,6.14
2018-02-18T15:20:48.033Z,6.11
2018-02-18T15:21:49.893Z,6.15
2018-02-18T15:22:51.688Z,6.15
2018-02-18T15:23:53.487Z,6.06
2018-02-18T15:24:55.337Z,6.09
2018-02-18T15:25:57.195Z,6.06
2018-02-18T15:26:59.054Z,6.12
2018-02-18T15:28:13.177Z,6.09
2018-02-18T15:29:15.040Z,6.00
2018-02-18T15:30:16.916Z,6.11
2018-02-18T15:31:18.776Z,6.03
2018-02-18T15:32:20.587Z,6.12
2018-02-18T15:33:22.383Z,6.08
2018-02-18T15:34:24.243Z,6.08
2018-02-18T15:35:26.105Z,6.04
2018-02-18T15:36:27.979Z,6.12
2018-02-18T15:37:42.152Z,6.06
2018-02-18T15:38:44.015Z,6.01
2018-02-18T15:39:45.871Z,5.99
2018-02-18T15:40:47.747Z,6.06
2018-02-18T15:41:49.560Z,6.09
2018-02-18T15:42:51.379Z,6.01
2018-02-18T15:43:53.241Z,5.94
2018-02-18T15:44:55.117Z,5.96
2018-02-18T15:45:56.991Z,5.96
2018-02-18T15:47:11.214Z,5.89
2018-02-18T15:48:13.076Z,6.00
2018-02-18T15:49:14.947Z,5.96
2018-02-18T15:50:16.804Z,5.94
2018-02-18T15:51:18.600Z,5.99
2018-02-18T15:52:20.448Z,5.91
2018-02-18T15:53:22.241Z,5.85
2018-02-18T15:54:24.100Z,5.81
2018-02-18T15:55:25.971Z,5.86
2018-02-18T15:56:40.101Z,5.81
2018-02-18T15:57:41.978Z,5.82
2018-02-18T15:58:43.855Z,5.79
2018-02-18T15:59:45.719Z,5.79
2018-02-18T16:00:47.534Z,5.85
2018-02-18T16:01:49.352Z,5.79
2018-02-18T16:02:51.223Z,5.79
2018-02-18T16:03:53.076Z,5.83
2018-02-18T16:04:54.933Z,5.76
2018-02-18T16:06:09.061Z,5.49
2018-02-18T16:07:10.936Z,5.46
2018-02-18T16:08:12.816Z,5.39
2018-02-18T16:09:14.692Z,5.31
2018-02-18T16:10:16.505Z,5.27
2018-02-18T16:11:18.296Z,5.25
2018-02-18T16:12:20.156Z,5.31
2018-02-18T16:13:22.031Z,5.30
2018-02-18T16:14:23.883Z,5.33
2018-02-18T16:15:38.017Z,5.46
2018-02-18T16:16:39.889Z,5.42
2018-02-18T16:17:41.762Z,5.48
2018-02-18T16:18:43.625Z,5.48
2018-02-18T16:19:45.438Z,5.46
2018-02-18T16:20:47.228Z,5.48
2018-02-18T16:21:49.078Z,5.57
2018-02-18T16:22:50.933Z,5.51
2018-02-18T16:23:52.786Z,5.48
2018-02-18T16:25:06.907Z,5.53
2018-02-18T16:26:08.776Z,5.51
2018-02-18T16:27:10.643Z,5.45
2018-02-18T16:28:12.501Z,5.46
2018-02-18T16:29:14.288Z,5.48
2018-02-18T16:30:16.083Z,5.42
2018-02-18T16:31:17.938Z,5.45
2018-02-18T16:32:19.812Z,5.35
2018-02-18T16:33:21.693Z,5.31
2018-02-18T16:34:35.835Z,5.31
2018-02-18T16:35:37.712Z,5.27
2018-02-18T16:36:39.586Z,5.28
2018-02-18T16:37:41.447Z,5.09
2018-02-18T16:38:43.245Z,5.10
2018-02-18T16:39:45.055Z,5.12
2018-02-18T16:40:46.930Z,5.02
2018-02-18T16:41:48.788Z,4.94
2018-02-18T16:42:50.662Z,4.94
2018-02-18T16:44:04.784Z,4.88
2018-02-18T16:45:06.640Z,4.88
2018-02-18T16:46:08.502Z,4.78
2018-02-18T16:47:10.373Z,4.70
2018-02-18T16:48:12.183Z,4.55
2018-02-18T16:49:13.972Z,4.48
2018-02-18T16:50:15.825Z,4.51
2018-02-18T16:51:17.699Z,4.44
2018-02-18T16:52:19.560Z,4.40
2018-02-18T16:53:33.729Z,4.41
2018-02-18T16:54:35.596Z,4.26
2018-02-18T16:55:37.456Z,4.26
2018-02-18T16:56:39.328Z,4.26
2018-02-18T16:57:41.120Z,4.11
2018-02-18T16:58:42.931Z,4.05
2018-02-18T16:59:44.776Z,4.11
2018-02-18T17:00:46.631Z,4.00
2018-02-18T17:01:48.491Z,4.06
2018-02-18T17:03:02.684Z,4.00
2018-02-18T17:04:04.579Z,4.00
2018-02-18T17:05:06.466Z,4.04
2018-02-18T17:06:08.318Z,3.94
2018-02-18T17:07:10.119Z,4.00
2018-02-18T17:08:11.922Z,3.79
2018-02-18T17:09:13.774Z,3.98
2018-02-18T17:10:15.628Z,3.76
2018-02-18T17:11:17.500Z,3.83
2018-02-18T17:12:31.643Z,3.87
2018-02-18T17:13:33.534Z,3.76
2018-02-18T17:14:35.413Z,3.73
2018-02-18T17:15:37.278Z,3.72
2018-02-18T17:16:39.083Z,3.69
2018-02-18T17:17:40.904Z,3.55
2018-02-18T17:18:42.770Z,3.55
2018-02-18T17:19:44.624Z,3.54
2018-02-18T17:20:46.496Z,3.52
2018-02-18T17:22:00.638Z,3.55
2018-02-18T17:23:02.494Z,3.45
2018-02-18T17:24:04.342Z,3.35
2018-02-18T17:25:06.238Z,3.39
2018-02-18T17:26:08.035Z,3.35
2018-02-18T17:27:09.834Z,3.29
2018-02-18T17:28:11.703Z,3.26
2018-02-18T17:29:13.579Z,3.31
2018-02-18T17:30:15.635Z,3.18
2018-02-18T17:31:29.772Z,3.21
2018-02-18T17:32:31.640Z,3.26
2018-02-18T17:33:33.543Z,3.24
2018-02-18T17:34:35.432Z,3.23
2018-02-18T17:35:37.236Z,3.21
2018-02-18T17:36:39.047Z,3.23
2018-02-18T17:37:40.928Z,3.14
2018-02-18T17:38:42.778Z,3.24
2018-02-18T17:39:44.639Z,3.21
2018-02-18T17:40:58.756Z,3.23
2018-02-18T17:42:00.668Z,3.10
2018-02-18T17:43:02.529Z,3.15
2018-02-18T17:44:04.386Z,3.14
2018-02-18T17:45:06.163Z,3.06
2018-02-18T17:46:07.974Z,3.03
2018-02-18T17:47:09.899Z,3.06
2018-02-18T17:48:11.740Z,3.08
2018-02-18T17:49:13.631Z,3.08
2018-02-18T17:50:27.783Z,3.05
2018-02-18T17:51:29.681Z,3.02
2018-02-18T17:52:31.565Z,3.05
2018-02-18T17:53:33.474Z,2.95
2018-02-18T17:54:35.280Z,2.93
2018-02-18T17:55:37.070Z,2.97
2018-02-18T17:56:38.919Z,2.89
2018-02-18T17:57:40.789Z,2.93
2018-02-18T17:58:42.666Z,2.89
2018-02-18T17:59:56.852Z,2.87
2018-02-18T18:00:58.740Z,2.85
2018-02-18T18:02:00.600Z,2.87
2018-02-18T18:03:02.471Z,2.74
2018-02-18T18:04:04.298Z,2.71
2018-02-18T18:05:06.120Z,2.67
2018-02-18T18:06:07.977Z,2.67
2018-02-18T18:07:09.861Z,2.64
2018-02-18T18:08:11.720Z,2.69
2018-02-18T18:09:25.868Z,2.72
2018-02-18T18:10:27.757Z,2.54
2018-02-18T18:11:29.650Z,2.56
2018-02-18T18:12:31.519Z,2.53
2018-02-18T18:13:33.330Z,2.59
2018-02-18T18:14:35.184Z,2.59
2018-02-18T18:15:37.093Z,2.56
2018-02-18T18:16:38.978Z,2.61
2018-02-18T18:17:40.831Z,2.59
2018-02-18T18:18:54.960Z,2.64
2018-02-18T18:19:56.845Z,2.71
2018-02-18T18:20:58.723Z,2.60
2018-02-18T18:22:00.637Z,2.61
2018-02-18T18:23:02.406Z,2.66
2018-02-18T18:24:04.202Z,2.57
2018-02-18T18:25:06.082Z,2.56
2018-02-18T18:26:07.950Z,2.49
2018-02-18T18:27:09.816Z,2.49
2018-02-18T18:28:24.022Z,2.52
2018-02-18T18:29:25.890Z,2.53
2018-02-18T18:30:27.745Z,2.48
2018-02-18T18:31:29.643Z,2.53
2018-02-18T18:32:31.462Z,2.53
2018-02-18T18:33:33.314Z,2.46
2018-02-18T18:34:35.184Z,2.34
2018-02-18T18:35:37.035Z,2.45
2018-02-18T18:36:38.895Z,2.41
2018-02-18T18:37:53.011Z,2.31
2018-02-18T18:38:54.879Z,2.36
2018-02-18T18:39:56.732Z,2.36
2018-02-18T18:40:58.589Z,2.39
2018-02-18T18:42:00.398Z,2.39
2018-02-18T18:43:02.202Z,2.30
2018-02-18T18:44:04.053Z,2.34
2018-02-18T18:45:05.913Z,2.31
2018-02-18T18:46:07.782Z,2.34
2018-02-18T18:47:21.923Z,2.21
2018-02-18T18:48:23.792Z,2.30
2018-02-18T18:49:25.734Z,2.18
2018-02-18T18:50:27.696Z,2.28
2018-02-18T18:51:29.506Z,2.27
2018-02-18T18:52:31.346Z,2.34
2018-02-18T18:53:33.180Z,2.38
2018-02-18T18:54:35.051Z,2.38
2018-02-18T18:55:36.906Z,2.35
2018-02-18T18:56:51.119Z,2.34
2018-02-18T18:57:53.015Z,2.39
2018-02-18T18:58:55.032Z,2.31
2018-02-18T18:59:56.908Z,2.36
2018-02-18T19:00:58.695Z,2.42
2018-02-18T19:02:00.491Z,2.48
2018-02-18T19:03:02.337Z,2.45
2018-02-18T19:04:04.196Z,2.49
2018-02-18T19:05:06.051Z,2.52
2018-02-18T19:06:20.235Z,2.53
2018-02-18T19:07:22.093Z,2.53
2018-02-18T19:08:23.945Z,2.53
2018-02-18T19:09:25.866Z,2.53
2018-02-18T19:10:27.741Z,2.57
2018-02-18T19:11:29.561Z,2.52
2018-02-18T19:12:31.428Z,2.52
2018-02-18T19:13:33.284Z,2.53
2018-02-18T19:14:35.144Z,2.49
2018-02-18T19:15:49.279Z,2.46
2018-02-18T19:16:51.148Z,2.52
2018-02-18T19:17:52.995Z,2.53
2018-02-18T19:18:54.848Z,2.49
2018-02-18T19:19:56.716Z,2.52
2018-02-18T19:20:58.458Z,2.54
2018-02-18T19:22:00.337Z,2.54
2018-02-18T19:23:02.203Z,2.45
2018-02-18T19:24:04.064Z,2.49
2018-02-18T19:25:18.187Z,2.56
2018-02-18T19:26:20.062Z,2.54
2018-02-18T19:27:21.937Z,2.56
2018-02-18T19:28:23.797Z,2.54
2018-02-18T19:29:25.602Z,2.53
2018-02-18T19:30:27.397Z,2.61
2018-02-18T19:31:29.255Z,2.54
2018-02-18T19:32:31.141Z,2.53
2018-02-18T19:33:33.014Z,2.59
2018-02-18T19:34:47.130Z,2.59
2018-02-18T19:35:48.987Z,2.60
2018-02-18T19:36:50.854Z,2.63
2018-02-18T19:37:52.706Z,2.64
2018-02-18T19:38:54.518Z,2.71
2018-02-18T19:39:56.303Z,2.74
2018-02-18T19:40:58.162Z,2.71
2018-02-18T19:42:00.030Z,2.71
2018-02-18T19:43:01.893Z,2.56
2018-02-18T19:44:16.028Z,2.54
2018-02-18T19:45:17.880Z,2.46
2018-02-18T19:46:19.735Z,2.57
2018-02-18T19:47:21.590Z,2.53
2018-02-18T19:48:23.450Z,2.53
2018-02-18T19:49:25.233Z,2.67
2018-02-18T19:50:27.085Z,2.75
2018-02-18T19:51:28.951Z,2.66
2018-02-18T19:52:30.834Z,2.66
2018-02-18T19:53:44.978Z,2.67
2018-02-18T19:54:46.815Z,2.61
2018-02-18T19:55:48.667Z,2.67
